createdAt,value
2018-07-31T12:31:45.154Z,34.45
2018-07-31T12:32:45.118Z,34.45
2018-07-31T12:33:45.012Z,33.77
2018-07-31T12:34:44.933Z,35.04
2018-07-31T12:35:44.848Z,34.53
2018-07-31T12:36:44.753Z,34.80
2018-07-31T12:38:44.534Z,32.94
2018-07-31T12:39:44.410Z,33.72
2018-07-31T12:40:44.287Z,33.60
2018-07-31T12:41:44.149Z,33.78
2018-07-31T12:42:44.019Z,31.54
2018-07-31T12:43:43.901Z,31.15
2018-07-31T12:44:43.750Z,32.42
2018-07-31T12:45:43.611Z,32.81
2018-07-31T12:46:43.572Z,32.53
2018-07-31T12:47:43.333Z,32.53
2018-07-31T12:48:43.247Z,32.62
2018-07-31T12:49:43.039Z,33.00
2018-07-31T12:50:42.899Z,32.61
2018-07-31T12:51:42.757Z,31.93
2018-07-31T12:52:42.611Z,31.62
2018-07-31T12:53:42.464Z,31.14
2018-07-31T12:54:42.318Z,30.86
2018-07-31T12:55:42.170Z,31.15
2018-07-31T12:56:42.028Z,32.11
2018-07-31T12:57:41.884Z,32.20
2018-07-31T12:58:41.741Z,31.72
2018-07-31T12:59:41.595Z,30.93
2018-07-31T13:00:41.450Z,30.45
2018-07-31T13:01:41.305Z,30.35
2018-07-31T13:02:41.166Z,31.04
2018-07-31T13:03:41.025Z,30.57
2018-07-31T13:04:40.879Z,30.67
2018-07-31T13:05:40.736Z,31.54
2018-07-31T13:06:40.652Z,31.54
2018-07-31T13:07:40.459Z,32.12
2018-07-31T13:08:40.328Z,31.14
2018-07-31T13:09:40.184Z,31.53
2018-07-31T13:10:40.041Z,30.83
2018-07-31T13:11:39.901Z,30.83
2018-07-31T13:12:39.761Z,31.01
2018-07-31T13:13:39.628Z,30.62
2018-07-31T13:14:39.486Z,30.24
2018-07-31T13:15:39.352Z,30.24
2018-07-31T13:16:39.218Z,30.05
2018-07-31T13:17:39.081Z,31.12
2018-07-31T13:18:38.942Z,30.63
2018-07-31T13:19:38.802Z,30.42
2018-07-31T13:20:38.662Z,28.98
2018-07-31T13:21:38.524Z,29.57
2018-07-31T13:22:38.383Z,30.34
2018-07-31T13:23:38.238Z,29.65
2018-07-31T13:24:38.095Z,28.77
2018-07-31T13:25:37.950Z,29.05
2018-07-31T13:26:37.804Z,29.05
2018-07-31T13:27:37.657Z,28.35
2018-07-31T13:28:37.509Z,28.84
2018-07-31T13:29:37.363Z,28.73
2018-07-31T13:30:37.260Z,28.43
2018-07-31T13:31:37.069Z,29.01
2018-07-31T13:32:36.943Z,27.76
2018-07-31T13:33:36.799Z,27.87
2018-07-31T13:34:36.615Z,28.34
2018-07-31T13:35:36.463Z,29.21
2018-07-31T13:36:36.311Z,28.84
2018-07-31T13:37:36.162Z,28.35
2018-07-31T13:38:36.015Z,28.34
2018-07-31T13:39:35.860Z,28.44
2018-07-31T13:40:35.711Z,27.94
2018-07-31T13:41:35.563Z,26.79
2018-07-31T13:42:35.414Z,28.16
2018-07-31T13:43:35.274Z,28.35
2018-07-31T13:44:35.115Z,28.27
2018-07-31T13:45:34.963Z,27.61
2018-07-31T13:46:34.815Z,27.72
2018-07-31T13:47:34.668Z,29.06
2018-07-31T13:48:34.522Z,28.79
2018-07-31T13:49:34.413Z,28.98
2018-07-31T13:50:34.226Z,29.16
2018-07-31T13:51:34.079Z,28.19
2018-07-31T13:52:33.934Z,28.28
2018-07-31T13:53:33.783Z,28.09
2018-07-31T13:54:33.638Z,27.20
2018-07-31T13:55:33.525Z,27.09
2018-07-31T13:56:33.345Z,27.96
2018-07-31T13:57:33.267Z,27.74
2018-07-31T13:58:33.122Z,26.97
2018-07-31T13:59:32.980Z,26.77
2018-07-31T14:00:32.840Z,26.68
2018-07-31T14:01:32.718Z,26.50
2018-07-31T14:02:32.556Z,28.43
2018-07-31T14:03:32.410Z,26.77
2018-07-31T14:04:32.266Z,27.44
2018-07-31T14:05:32.123Z,27.74
2018-07-31T14:06:31.982Z,28.07
2018-07-31T14:07:31.839Z,28.07
2018-07-31T14:08:31.698Z,28.84
2018-07-31T14:09:31.554Z,28.37
2018-07-31T14:10:31.404Z,28.47
2018-07-31T14:11:31.256Z,28.55
2018-07-31T14:12:31.127Z,28.64
2018-07-31T14:13:30.961Z,29.21
2018-07-31T14:14:30.813Z,28.13
2018-07-31T14:15:30.668Z,28.02
2018-07-31T14:16:30.521Z,28.88
2018-07-31T14:17:30.373Z,27.72
2018-07-31T14:18:30.223Z,28.28
2018-07-31T14:19:30.073Z,28.28
2018-07-31T14:20:29.934Z,27.90
2018-07-31T14:21:29.772Z,28.19
2018-07-31T14:22:29.617Z,28.17
2018-07-31T14:23:29.463Z,27.88
2018-07-31T14:24:29.382Z,27.70
2018-07-31T14:25:29.150Z,27.80
2018-07-31T14:26:28.994Z,27.51
2018-07-31T14:27:28.838Z,27.78
2018-07-31T14:28:28.684Z,27.49
2018-07-31T14:29:28.528Z,26.92
2018-07-31T14:30:28.413Z,27.62
2018-07-31T14:31:28.214Z,27.33
2018-07-31T14:32:28.055Z,27.91
2018-07-31T14:33:27.927Z,28.22
2018-07-31T14:34:27.742Z,27.81
2018-07-31T14:35:27.592Z,28.69
2018-07-31T14:36:27.436Z,28.58
2018-07-31T14:37:27.277Z,28.66
2018-07-31T14:38:27.126Z,27.40
2018-07-31T14:39:26.964Z,27.98
2018-07-31T14:40:26.804Z,28.08
2018-07-31T14:41:26.644Z,27.39
2018-07-31T14:42:26.484Z,26.81
2018-07-31T14:43:26.332Z,27.39
2018-07-31T14:44:26.172Z,27.67
2018-07-31T14:45:26.008Z,27.96
2018-07-31T14:46:25.853Z,26.98
2018-07-31T14:47:25.690Z,27.47
2018-07-31T14:48:25.559Z,28.05
2018-07-31T14:49:25.367Z,27.76
2018-07-31T14:50:25.199Z,28.05
2018-07-31T14:51:25.038Z,27.87
2018-07-31T14:52:24.871Z,27.99
2018-07-31T14:53:24.709Z,28.01
2018-07-31T14:54:24.546Z,28.52
2018-07-31T14:55:24.381Z,28.74
2018-07-31T14:56:24.222Z,29.04
2018-07-31T14:57:24.069Z,29.83
2018-07-31T14:58:23.915Z,29.65
2018-07-31T14:59:23.760Z,30.04
2018-07-31T15:00:23.606Z,29.94
2018-07-31T15:01:23.455Z,30.23
2018-07-31T15:02:23.300Z,30.41
2018-07-31T15:03:23.152Z,30.70
2018-07-31T15:04:23.006Z,30.40
2018-07-31T15:05:22.866Z,30.02
2018-07-31T15:06:22.721Z,30.13
2018-07-31T15:07:22.584Z,30.23
2018-07-31T15:08:22.441Z,31.20
2018-07-31T15:09:22.302Z,30.63
2018-07-31T15:10:22.162Z,30.34
2018-07-31T15:11:22.107Z,31.40
2018-07-31T15:12:21.885Z,30.13
2018-07-31T15:13:21.744Z,31.01
2018-07-31T15:14:21.600Z,29.74
2018-07-31T15:15:21.458Z,29.76
2018-07-31T15:16:21.318Z,30.34
2018-07-31T15:17:21.172Z,29.85
2018-07-31T15:18:21.028Z,30.13
2018-07-31T15:19:20.888Z,29.85
2018-07-31T15:20:20.746Z,31.70
2018-07-31T15:21:20.606Z,32.20
2018-07-31T15:22:20.469Z,32.40
2018-07-31T15:23:20.334Z,31.34
2018-07-31T15:24:20.195Z,31.65
2018-07-31T15:25:20.064Z,31.65
2018-07-31T15:26:19.931Z,31.75
2018-07-31T15:27:19.802Z,32.55
2018-07-31T15:28:19.677Z,31.76
2018-07-31T15:29:19.546Z,32.08
2018-07-31T15:30:19.421Z,32.74
2018-07-31T15:31:19.301Z,31.86
2018-07-31T15:32:19.180Z,32.64
2018-07-31T15:33:19.053Z,31.56
2018-07-31T15:34:18.954Z,31.26
2018-07-31T15:35:18.842Z,31.34
2018-07-31T15:36:18.681Z,31.15
2018-07-31T15:37:18.554Z,30.76
2018-07-31T15:38:18.431Z,30.94
2018-07-31T15:39:18.298Z,30.35
2018-07-31T15:40:18.173Z,30.65
2018-07-31T15:41:18.052Z,30.15
2018-07-31T15:42:17.928Z,30.73
2018-07-31T15:43:17.802Z,29.66
2018-07-31T15:44:17.676Z,29.85
2018-07-31T15:45:17.549Z,29.77
2018-07-31T15:46:17.443Z,29.95
2018-07-31T15:47:17.299Z,29.74
2018-07-31T15:48:17.162Z,29.44
2018-07-31T15:49:17.036Z,28.84
2018-07-31T15:50:16.903Z,29.52
2018-07-31T15:51:16.771Z,28.54
2018-07-31T15:52:16.633Z,29.70
2018-07-31T15:53:16.494Z,29.41
2018-07-31T15:54:16.360Z,30.09
2018-07-31T15:55:16.223Z,29.23
2018-07-31T15:56:16.089Z,29.83
2018-07-31T15:57:15.957Z,29.34
2018-07-31T15:58:15.826Z,29.44
2018-07-31T15:59:15.691Z,30.62
2018-07-31T16:00:15.590Z,30.23
2018-07-31T16:01:15.414Z,30.21
2018-07-31T16:02:15.276Z,29.83
2018-07-31T16:03:15.137Z,29.54
2018-07-31T16:04:14.997Z,30.41
2018-07-31T16:05:14.864Z,30.12
2018-07-31T16:06:14.728Z,30.52
2018-07-31T16:07:14.588Z,31.01
2018-07-31T16:08:14.454Z,30.54
2018-07-31T16:09:14.318Z,31.04
2018-07-31T16:10:14.186Z,32.04
2018-07-31T16:11:14.058Z,32.17
2018-07-31T16:12:13.927Z,32.67
2018-07-31T16:13:13.801Z,32.87
2018-07-31T16:14:13.676Z,33.38
2018-07-31T16:15:13.551Z,33.59
2018-07-31T16:16:13.430Z,33.89
2018-07-31T16:17:13.369Z,34.77
2018-07-31T16:18:13.180Z,34.69
2018-07-31T16:19:13.064Z,35.59
2018-07-31T16:20:12.947Z,35.88
2018-07-31T16:21:12.829Z,35.88
2018-07-31T16:22:12.701Z,35.80
2018-07-31T16:23:12.637Z,35.30
2018-07-31T16:24:12.477Z,35.79
2018-07-31T16:25:12.370Z,35.49
2018-07-31T16:26:12.261Z,36.08
2018-07-31T16:27:12.158Z,35.98
2018-07-31T16:28:12.053Z,35.96
2018-07-31T16:29:11.952Z,35.96
2018-07-31T16:30:11.848Z,35.77
2018-07-31T16:31:11.748Z,36.26
2018-07-31T16:32:11.638Z,37.04
2018-07-31T16:33:11.532Z,36.16
2018-07-31T16:34:11.421Z,36.26
2018-07-31T16:35:11.345Z,36.55
2018-07-31T16:36:11.210Z,35.87
2018-07-31T16:37:11.104Z,36.84
2018-07-31T16:38:11.003Z,37.06
2018-07-31T16:39:10.891Z,37.06
2018-07-31T16:40:10.787Z,37.27
2018-07-31T16:41:10.680Z,37.07
2018-07-31T16:42:10.574Z,37.96
2018-07-31T16:43:10.472Z,37.19
2018-07-31T16:44:10.375Z,37.68
2018-07-31T16:45:10.278Z,38.17
2018-07-31T16:46:10.218Z,38.00
2018-07-31T16:47:10.084Z,38.09
2018-07-31T16:48:09.986Z,38.00
2018-07-31T16:49:09.886Z,37.80
2018-07-31T16:50:09.792Z,38.09
2018-07-31T16:51:09.693Z,38.87
2018-07-31T16:52:09.596Z,38.09
2018-07-31T16:53:09.495Z,37.70
2018-07-31T16:54:09.399Z,38.19
2018-07-31T16:55:09.303Z,38.29
2018-07-31T16:56:09.209Z,37.80
2018-07-31T16:57:09.118Z,37.68
2018-07-31T16:58:09.027Z,37.80
2018-07-31T16:59:08.935Z,38.78
2018-07-31T17:00:08.843Z,37.68
2018-07-31T17:01:08.753Z,37.29
2018-07-31T17:02:08.659Z,37.37
2018-07-31T17:03:08.566Z,36.88
2018-07-31T17:04:08.471Z,36.98
2018-07-31T17:05:08.378Z,36.96
2018-07-31T17:06:08.281Z,36.96
2018-07-31T17:07:08.193Z,37.65
2018-07-31T17:08:08.093Z,36.86
2018-07-31T17:09:07.989Z,36.18
2018-07-31T17:10:07.889Z,36.74
2018-07-31T17:11:07.787Z,36.84
2018-07-31T17:12:07.689Z,36.84
2018-07-31T17:13:07.590Z,36.84
2018-07-31T17:14:07.490Z,36.16
2018-07-31T17:15:07.386Z,36.37
2018-07-31T17:16:07.291Z,37.06
2018-07-31T17:17:07.194Z,36.86
2018-07-31T17:18:07.093Z,37.15
2018-07-31T17:19:06.997Z,37.35
2018-07-31T17:20:06.903Z,37.25
2018-07-31T17:21:06.812Z,37.07
2018-07-31T17:22:06.721Z,37.27
2018-07-31T17:23:06.628Z,36.98
2018-07-31T17:24:06.535Z,37.17
2018-07-31T17:25:06.445Z,37.46
2018-07-31T17:26:06.361Z,37.37
2018-07-31T17:27:06.270Z,37.78
2018-07-31T17:28:06.183Z,37.98
2018-07-31T17:29:06.095Z,37.48
2018-07-31T17:30:06.011Z,37.09
2018-07-31T17:31:05.939Z,37.37
2018-07-31T17:32:05.853Z,37.57
2018-07-31T17:33:05.769Z,37.59
2018-07-31T17:34:05.683Z,37.48
2018-07-31T17:35:05.598Z,37.78
2018-07-31T17:36:05.540Z,37.59
2018-07-31T17:37:05.433Z,37.59
2018-07-31T17:38:05.347Z,37.68
2018-07-31T17:39:05.256Z,37.48
2018-07-31T17:40:05.167Z,37.48
2018-07-31T17:41:05.082Z,37.59
2018-07-31T17:42:04.990Z,37.59
2018-07-31T17:43:04.901Z,37.68
2018-07-31T17:44:04.849Z,37.88
2018-07-31T17:45:04.722Z,38.19
2018-07-31T17:46:04.637Z,38.29
2018-07-31T17:47:04.549Z,38.19
2018-07-31T17:48:04.465Z,38.29
2018-07-31T17:49:04.375Z,38.48
2018-07-31T17:50:04.287Z,38.48
2018-07-31T17:51:04.212Z,38.29
2018-07-31T17:52:04.115Z,38.29
2018-07-31T17:53:04.282Z,38.29
2018-07-31T17:54:03.950Z,38.29
2018-07-31T17:55:03.871Z,38.48
2018-07-31T17:56:03.783Z,38.68
2018-07-31T17:57:03.701Z,38.68
2018-07-31T17:58:03.611Z,38.48
2018-07-31T17:59:03.529Z,38.78
2018-07-31T18:00:03.447Z,38.97
2018-07-31T18:01:03.366Z,38.97
2018-07-31T18:02:03.283Z,38.87
2018-07-31T18:03:03.203Z,39.07
2018-07-31T18:04:03.120Z,39.36
2018-07-31T18:05:03.035Z,39.56
2018-07-31T18:06:02.957Z,39.78
2018-07-31T18:07:02.867Z,40.17
2018-07-31T18:08:02.783Z,40.36
2018-07-31T18:09:02.705Z,40.66
2018-07-31T18:10:02.627Z,41.07
2018-07-31T18:11:02.550Z,41.27
2018-07-31T18:12:02.470Z,41.36
2018-07-31T18:13:02.391Z,41.56
2018-07-31T18:14:02.349Z,41.38
2018-07-31T18:15:02.240Z,41.68
2018-07-31T18:16:02.157Z,42.17
2018-07-31T18:17:02.088Z,41.77
2018-07-31T18:18:02.013Z,41.99
2018-07-31T18:19:01.938Z,42.09
2018-07-31T18:20:01.868Z,42.29
2018-07-31T18:21:01.794Z,42.38
2018-07-31T18:22:01.723Z,42.48
2018-07-31T18:23:01.659Z,42.70
2018-07-31T18:24:01.595Z,42.70
2018-07-31T18:25:01.513Z,42.90
2018-07-31T18:26:01.441Z,43.19
2018-07-31T18:27:01.418Z,43.31
2018-07-31T18:28:01.339Z,43.70
2018-07-31T18:29:01.231Z,43.73
2018-07-31T18:30:01.161Z,43.92
2018-07-31T18:31:01.100Z,44.02
2018-07-31T18:32:01.032Z,44.24
2018-07-31T18:33:00.972Z,44.24
2018-07-31T18:34:00.906Z,44.24
2018-07-31T18:35:00.880Z,44.34
2018-07-31T18:36:00.776Z,44.65
2018-07-31T18:37:00.733Z,44.56
2018-07-31T18:38:00.644Z,44.85
2018-07-31T18:39:00.577Z,45.07
2018-07-31T18:40:00.513Z,45.07
2018-07-31T18:41:00.458Z,45.07
2018-07-31T18:42:00.391Z,45.17
2018-07-31T18:43:00.327Z,45.26
2018-07-31T18:44:00.262Z,45.36
2018-07-31T18:45:00.200Z,45.48
2018-07-31T18:46:00.139Z,45.88
2018-07-31T18:47:00.077Z,46.00
2018-07-31T19:01:15.296Z,48.68
2018-07-31T19:02:15.090Z,48.87
2018-07-31T19:03:15.025Z,48.68
2018-07-31T19:04:14.953Z,48.77
2018-07-31T19:05:14.877Z,48.98
2018-07-31T19:06:14.789Z,48.87
2018-07-31T19:07:14.701Z,48.98
2018-07-31T19:08:14.608Z,49.76
2018-07-31T19:09:14.513Z,49.69
2018-07-31T19:10:14.415Z,50.58
2018-07-31T19:11:14.315Z,49.98
2018-07-31T19:12:14.217Z,50.40
2018-07-31T19:13:14.193Z,49.98
2018-07-31T19:14:14.268Z,49.89
2018-07-31T19:15:13.920Z,49.49
2018-07-31T19:16:13.826Z,49.69
2018-07-31T19:17:13.723Z,49.98
2018-07-31T19:18:13.625Z,50.90
2018-07-31T19:19:13.527Z,50.21
2018-07-31T19:20:13.421Z,50.61
2018-07-31T19:21:13.317Z,51.30
2018-07-31T19:22:13.218Z,50.83
2018-07-31T19:23:13.117Z,50.63
2018-07-31T19:24:13.020Z,50.92
2018-07-31T19:25:12.920Z,51.15
2018-07-31T19:26:12.824Z,51.15
2018-07-31T19:27:12.726Z,51.56
2018-07-31T19:28:12.718Z,51.56
2018-07-31T19:29:12.529Z,51.56
2018-07-31T19:30:12.429Z,51.77
2018-07-31T19:31:12.332Z,51.77
2018-07-31T19:32:12.237Z,51.96
2018-07-31T19:33:12.149Z,52.28
2018-07-31T19:34:12.107Z,52.38
2018-07-31T19:35:11.957Z,52.49
2018-07-31T19:36:11.867Z,52.68
2018-07-31T19:37:48.933Z,52.16
2018-07-31T19:38:48.894Z,52.53
2018-07-31T19:39:48.882Z,52.23
2018-07-31T19:40:48.870Z,52.73
2018-07-31T19:41:48.927Z,53.35
2018-07-31T19:42:48.852Z,53.64
2018-07-31T19:43:48.837Z,53.87
2018-07-31T19:44:48.835Z,54.66
2018-07-31T19:45:48.856Z,54.69
2018-07-31T19:46:48.812Z,55.18
2018-07-31T19:47:48.794Z,55.28
2018-07-31T19:48:48.783Z,55.18
2018-07-31T19:49:48.771Z,55.28
2018-07-31T19:50:48.761Z,55.31
2018-07-31T19:51:48.750Z,55.51
2018-07-31T19:52:48.741Z,55.51
2018-07-31T19:53:48.731Z,56.13
2018-07-31T19:54:48.771Z,56.23
2018-07-31T19:55:48.709Z,56.62
2018-07-31T19:56:48.697Z,56.62
2018-07-31T19:57:48.689Z,56.55
2018-07-31T19:58:53.676Z,56.15
2018-07-31T19:59:48.666Z,56.75
2018-07-31T20:00:48.655Z,57.05
2018-07-31T20:01:48.642Z,57.05
2018-07-31T20:02:48.633Z,57.08
2018-07-31T20:03:48.663Z,57.77
2018-07-31T20:04:48.613Z,56.98
2018-07-31T20:05:48.600Z,57.28
2018-07-31T20:06:48.590Z,57.37
2018-07-31T20:07:48.577Z,57.37
2018-07-31T20:08:48.567Z,57.70
2018-07-31T20:09:48.569Z,57.80
2018-07-31T20:10:48.546Z,57.90
2018-07-31T20:11:48.535Z,58.42
2018-07-31T20:12:48.523Z,58.72
2018-07-31T20:13:48.510Z,59.12
2018-07-31T20:14:48.500Z,59.44
2018-07-31T20:15:48.613Z,59.85
2018-07-31T20:16:48.480Z,59.85
2018-07-31T20:17:48.470Z,59.94
2018-07-31T20:18:48.456Z,59.55
2018-07-31T20:19:48.445Z,60.04
2018-07-31T20:20:48.441Z,59.85
2018-07-31T20:21:48.423Z,60.14
2018-07-31T20:22:48.412Z,59.85
2018-07-31T20:23:48.400Z,58.95
2018-07-31T20:24:48.391Z,58.62
2018-07-31T20:25:48.379Z,58.03
2018-07-31T20:26:48.367Z,57.80
2018-07-31T20:27:48.359Z,57.60
2018-07-31T20:28:48.346Z,57.28
2018-07-31T20:29:48.336Z,56.88
2018-07-31T20:30:48.324Z,56.75
2018-07-31T20:31:48.313Z,56.85
2018-07-31T20:32:48.306Z,56.55
2018-07-31T20:33:48.291Z,56.45
2018-07-31T20:34:48.299Z,56.35
2018-07-31T20:35:48.268Z,56.13
2018-07-31T20:36:48.258Z,55.83
2018-07-31T20:37:48.281Z,56.13
2018-07-31T20:38:48.238Z,56.03
2018-07-31T20:39:48.233Z,55.83
2018-07-31T20:40:48.212Z,55.83
2018-07-31T20:41:48.307Z,55.51
2018-07-31T20:42:48.193Z,55.41
2018-07-31T20:43:48.185Z,55.11
2018-07-31T20:44:48.168Z,54.88
2018-07-31T20:45:48.160Z,54.99
2018-07-31T20:46:48.148Z,54.88
2018-07-31T20:47:48.136Z,54.88
2018-07-31T20:48:48.127Z,55.01
2018-07-31T20:49:48.115Z,54.99
2018-07-31T20:50:48.102Z,55.09
2018-07-31T20:51:48.091Z,55.11
2018-07-31T20:52:48.082Z,55.21
2018-07-31T20:53:48.070Z,55.21
2018-07-31T20:54:48.059Z,55.31
2018-07-31T20:55:48.049Z,55.21
2018-07-31T20:56:48.038Z,55.09
2018-07-31T20:57:48.024Z,54.99
2018-07-31T20:58:48.013Z,54.88
2018-07-31T20:59:48.050Z,54.88
2018-07-31T21:00:47.996Z,55.09
2018-07-31T21:01:47.981Z,55.28
2018-07-31T21:02:47.969Z,55.48
2018-07-31T21:03:48.004Z,55.48
2018-07-31T21:04:47.946Z,55.58
2018-07-31T21:05:47.935Z,55.78
2018-07-31T21:06:47.926Z,55.78
2018-07-31T21:07:47.915Z,55.98
2018-07-31T21:08:47.904Z,56.07
2018-07-31T21:09:47.893Z,56.28
2018-07-31T21:10:47.880Z,57.09
2018-07-31T21:11:47.869Z,57.69
2018-07-31T21:12:47.858Z,58.08
2018-07-31T21:13:47.848Z,58.28
2018-07-31T21:14:47.836Z,58.38
2018-07-31T21:15:47.825Z,58.68
2018-07-31T21:16:47.814Z,58.78
2018-07-31T21:17:47.837Z,59.30
2018-07-31T21:18:47.834Z,59.70
2018-07-31T21:19:47.780Z,60.10
2018-07-31T21:20:47.771Z,60.40
2018-07-31T21:21:47.758Z,60.99
2018-07-31T21:22:47.747Z,61.09
2018-07-31T21:23:47.736Z,61.19
2018-07-31T21:24:47.724Z,61.19
2018-07-31T21:25:47.716Z,61.71
2018-07-31T21:26:47.703Z,61.91
2018-07-31T21:27:47.692Z,62.11
2018-07-31T21:28:47.680Z,62.70
2018-07-31T21:29:47.671Z,63.00
2018-07-31T21:30:47.659Z,63.20
2018-07-31T21:31:47.655Z,63.40
2018-07-31T21:32:47.637Z,64.22
2018-07-31T21:33:47.632Z,64.42
2018-07-31T21:34:47.731Z,64.62
2018-07-31T21:35:47.608Z,65.31
2018-07-31T21:36:47.601Z,65.52
2018-07-31T21:37:47.581Z,65.91
2018-07-31T21:38:47.601Z,66.01
2018-07-31T21:39:47.559Z,66.31
2018-07-31T21:40:47.550Z,66.54
2018-07-31T21:41:47.537Z,66.44
2018-07-31T21:42:47.532Z,66.94
2018-07-31T21:43:47.519Z,67.13
2018-07-31T21:44:47.504Z,67.27
2018-07-31T21:45:47.500Z,67.57
2018-07-31T21:46:47.482Z,67.66
2018-07-31T21:47:47.492Z,67.66
2018-07-31T21:48:47.460Z,67.87
2018-07-31T21:49:47.449Z,68.06
2018-07-31T21:50:47.439Z,68.36
2018-07-31T21:51:47.429Z,68.26
2018-07-31T21:52:47.486Z,68.36
2018-07-31T21:53:47.405Z,68.66
2018-07-31T21:54:47.444Z,68.76
2018-07-31T21:55:47.385Z,68.96
2018-07-31T21:56:47.374Z,68.85
2018-07-31T21:57:47.362Z,68.96
2018-07-31T21:58:47.351Z,69.06
2018-07-31T21:59:47.341Z,68.96
2018-07-31T22:00:47.329Z,69.15
2018-07-31T22:01:47.317Z,69.39
2018-07-31T22:02:47.309Z,69.59
2018-07-31T22:03:47.294Z,69.68
2018-07-31T22:04:47.283Z,69.78
2018-07-31T22:05:47.282Z,69.89
2018-07-31T22:06:47.262Z,69.98
2018-07-31T22:07:47.301Z,70.08
2018-07-31T22:08:47.242Z,69.98
2018-07-31T22:09:47.231Z,70.48
2018-07-31T22:10:47.219Z,70.48
2018-07-31T22:11:47.209Z,70.48
2018-07-31T22:12:47.193Z,70.48
2018-07-31T22:13:47.191Z,70.58
2018-07-31T22:14:47.178Z,70.68
2018-07-31T22:15:47.162Z,70.81
2018-07-31T22:16:47.152Z,70.91
2018-07-31T22:17:47.141Z,71.11
2018-07-31T22:18:47.132Z,71.11
2018-07-31T22:19:47.119Z,71.21
2018-07-31T22:20:47.106Z,71.41
2018-07-31T22:21:47.097Z,71.51
2018-07-31T22:22:47.083Z,71.61
2018-07-31T22:23:47.074Z,71.61
2018-07-31T22:24:47.121Z,71.81
2018-07-31T22:25:47.059Z,72.04
2018-07-31T22:26:47.042Z,72.24
2018-07-31T22:27:47.029Z,72.24
2018-07-31T22:28:47.083Z,72.14
2018-07-31T22:29:47.006Z,72.24
2018-07-31T22:30:46.995Z,72.44
2018-07-31T22:31:46.986Z,72.74
2018-07-31T22:32:46.974Z,72.84
2018-07-31T22:33:46.961Z,72.94
2018-07-31T22:34:46.951Z,72.84
2018-07-31T22:35:46.943Z,73.04
2018-07-31T22:36:46.929Z,73.04
2018-07-31T22:37:46.921Z,73.13
2018-07-31T22:38:46.909Z,73.37
2018-07-31T22:39:46.925Z,73.47
2018-07-31T22:40:46.887Z,73.47
2018-07-31T22:41:46.875Z,73.67
2018-07-31T22:42:46.864Z,73.67
2018-07-31T22:43:46.854Z,73.77
2018-07-31T22:44:46.843Z,73.87
2018-07-31T22:45:46.833Z,73.87
2018-07-31T22:46:46.819Z,74.07
2018-07-31T22:47:46.827Z,74.37
2018-07-31T22:48:46.807Z,74.37
2018-07-31T22:49:46.787Z,74.37
2018-07-31T22:50:46.775Z,74.60
2018-07-31T22:51:46.766Z,74.90
2018-07-31T22:52:46.754Z,75.00
2018-07-31T22:53:46.745Z,75.00
2018-07-31T22:54:46.731Z,75.10
2018-07-31T22:55:46.719Z,75.20
2018-07-31T22:56:46.713Z,75.40
2018-07-31T22:57:46.704Z,75.60
2018-07-31T22:58:46.688Z,75.60
2018-07-31T22:59:46.675Z,75.79
2018-07-31T23:00:46.666Z,75.93
2018-07-31T23:01:46.653Z,75.90
2018-07-31T23:02:46.645Z,76.03
2018-07-31T23:03:46.631Z,75.93
2018-07-31T23:04:46.620Z,76.03
2018-07-31T23:05:46.609Z,75.93
2018-07-31T23:06:46.600Z,75.93
2018-07-31T23:07:46.589Z,75.73
2018-07-31T23:08:46.576Z,75.93
2018-07-31T23:09:46.566Z,75.83
2018-07-31T23:10:46.562Z,75.93
2018-07-31T23:11:46.551Z,75.93
2018-07-31T23:12:46.531Z,75.83
2018-07-31T23:13:46.520Z,75.83
2018-07-31T23:14:46.507Z,75.93
2018-07-31T23:15:46.497Z,76.03
2018-07-31T23:16:46.484Z,76.23
2018-07-31T23:17:46.474Z,76.23
2018-07-31T23:18:46.463Z,76.23
2018-07-31T23:19:46.450Z,76.37
2018-07-31T23:20:46.458Z,76.47
2018-07-31T23:21:46.429Z,76.47
2018-07-31T23:22:46.419Z,76.57
2018-07-31T23:23:46.405Z,76.77
2018-07-31T23:24:46.392Z,76.77
2018-07-31T23:25:46.381Z,76.57
2018-07-31T23:26:46.370Z,76.67
2018-07-31T23:27:46.357Z,76.67
2018-07-31T23:28:46.351Z,76.87
2018-07-31T23:29:46.337Z,76.87
2018-07-31T23:30:46.331Z,76.97
2018-07-31T23:31:46.314Z,77.06
2018-07-31T23:32:46.304Z,77.17
2018-07-31T23:33:46.293Z,77.17
2018-07-31T23:34:46.280Z,77.06
2018-07-31T23:35:46.270Z,77.06
2018-07-31T23:36:46.259Z,77.17
2018-07-31T23:37:46.313Z,77.20
2018-07-31T23:38:46.236Z,77.30
2018-07-31T23:39:46.226Z,77.50
2018-07-31T23:40:46.239Z,77.60
2018-07-31T23:41:46.206Z,77.60
2018-07-31T23:42:46.190Z,77.70
2018-07-31T23:43:46.180Z,77.60
2018-07-31T23:44:46.168Z,77.80
2018-07-31T23:45:46.155Z,77.80
2018-07-31T23:46:46.149Z,77.80
2018-07-31T23:47:46.133Z,77.90
2018-07-31T23:48:46.135Z,77.80
2018-07-31T23:49:46.110Z,78.00
2018-07-31T23:50:46.175Z,77.90
2018-07-31T23:51:46.088Z,78.03
2018-07-31T23:52:46.076Z,77.70
2018-07-31T23:53:46.063Z,77.84
2018-07-31T23:54:46.053Z,77.54
2018-07-31T23:55:46.040Z,77.54
2018-07-31T23:56:46.031Z,77.64
2018-07-31T23:57:46.019Z,77.54
2018-07-31T23:58:46.009Z,77.24
2018-07-31T23:59:45.996Z,77.14
